createdAt,value
2019-04-03T00:00:04.408Z,13.13
2019-04-03T00:02:32.710Z,13.08
2019-04-03T00:05:02.976Z,13.24
2019-04-03T00:07:35.160Z,13.19
2019-04-03T00:10:04.744Z,13.15
2019-04-03T00:12:33.893Z,12.92
2019-04-03T00:15:02.230Z,12.86
2019-04-03T00:17:30.533Z,13.06
2019-04-03T00:19:59.006Z,13.01
2019-04-03T00:22:27.381Z,12.93
2019-04-03T00:24:55.780Z,12.78
2019-04-03T00:27:24.244Z,12.82
2019-04-03T00:29:52.671Z,12.75
2019-04-03T00:32:21.814Z,12.84
2019-04-03T00:34:53.098Z,12.64
2019-04-03T00:37:21.533Z,12.64
2019-04-03T00:39:53.858Z,12.63
2019-04-03T00:42:21.276Z,12.73
2019-04-03T00:44:49.584Z,12.64
2019-04-03T00:47:18.102Z,12.47
2019-04-03T00:49:48.147Z,12.51
2019-04-03T00:52:16.488Z,12.43
2019-04-03T00:54:45.144Z,12.37
2019-04-03T00:57:13.479Z,12.35
2019-04-03T00:59:41.952Z,12.39
2019-04-03T01:02:10.211Z,12.42
2019-04-03T01:04:38.674Z,12.26
2019-04-03T01:07:07.354Z,12.14
2019-04-03T01:09:35.680Z,12.28
2019-04-03T01:12:04.165Z,12.23
2019-04-03T01:14:32.461Z,12.13
2019-04-03T01:17:03.499Z,12.15
2019-04-03T01:19:30.886Z,12.14
2019-04-03T01:21:59.614Z,11.97
2019-04-03T01:24:27.873Z,12.00
2019-04-03T01:26:56.193Z,12.05
2019-04-03T01:29:24.505Z,12.00
2019-04-03T01:31:52.825Z,11.79
2019-04-03T01:34:21.139Z,11.73
2019-04-03T01:36:49.464Z,11.73
2019-04-03T01:39:19.155Z,11.59
2019-04-03T01:41:47.829Z,11.69
2019-04-03T01:44:16.124Z,11.68
2019-04-03T01:46:44.424Z,11.68
2019-04-03T01:49:12.961Z,11.55
2019-04-03T01:51:41.435Z,11.46
2019-04-03T01:54:09.755Z,11.39
2019-04-03T01:56:38.061Z,11.33
2019-04-03T01:59:07.332Z,11.34
2019-04-03T02:01:36.579Z,11.29
2019-04-03T02:04:05.922Z,11.16
2019-04-03T02:06:34.514Z,11.15
2019-04-03T02:09:04.648Z,11.01
2019-04-03T02:11:32.968Z,10.88
2019-04-03T02:14:01.298Z,10.85
2019-04-03T02:16:29.600Z,10.73
2019-04-03T02:18:57.914Z,10.76
2019-04-03T02:21:27.932Z,10.68
2019-04-03T02:23:56.442Z,10.58
2019-04-03T02:26:24.776Z,10.47
2019-04-03T02:28:53.083Z,10.61
2019-04-03T02:31:21.428Z,10.67
2019-04-03T02:33:49.744Z,10.53
2019-04-03T02:36:18.238Z,10.35
2019-04-03T02:38:46.862Z,10.32
2019-04-03T02:41:15.660Z,10.28
2019-04-03T02:43:46.281Z,10.38
2019-04-03T02:46:14.494Z,10.40
2019-04-03T02:48:42.916Z,10.51
2019-04-03T02:51:11.306Z,10.36
2019-04-03T02:53:39.894Z,10.23
2019-04-03T02:56:11.567Z,10.17
2019-04-03T02:58:38.293Z,10.27
2019-04-03T03:01:07.351Z,10.32
2019-04-03T03:03:36.433Z,10.38
2019-04-03T03:06:05.195Z,10.33
2019-04-03T03:08:33.503Z,10.40
2019-04-03T03:11:03.537Z,10.34
2019-04-03T03:13:34.559Z,10.31
2019-04-03T03:16:03.673Z,10.40
2019-04-03T03:18:32.081Z,10.33
2019-04-03T03:21:01.959Z,10.26
2019-04-03T03:23:30.570Z,10.25
2019-04-03T03:25:59.069Z,10.18
2019-04-03T03:28:27.659Z,10.26
2019-04-03T03:31:02.578Z,10.29
2019-04-03T03:33:35.554Z,10.23
2019-04-03T03:35:58.006Z,10.10
2019-04-03T03:38:28.158Z,10.02
2019-04-03T03:40:57.033Z,9.96
2019-04-03T03:43:25.916Z,10.50
2019-04-03T03:45:54.631Z,12.05
2019-04-03T03:48:23.367Z,12.88
2019-04-03T03:50:55.669Z,12.90
2019-04-03T03:53:22.306Z,11.89
2019-04-03T03:55:51.023Z,10.97
2019-04-03T03:58:20.181Z,10.44
2019-04-03T04:00:52.538Z,10.44
2019-04-03T04:03:19.233Z,10.35
2019-04-03T04:05:47.525Z,10.51
2019-04-03T04:08:16.223Z,10.39
2019-04-03T04:10:44.638Z,10.08
2019-04-03T04:13:15.511Z,10.07
2019-04-03T04:15:44.237Z,9.88
2019-04-03T04:18:14.774Z,9.77
2019-04-03T04:20:43.024Z,9.68
2019-04-03T04:23:11.783Z,9.80
2019-04-03T04:25:43.462Z,9.56
2019-04-03T04:28:10.459Z,9.47
2019-04-03T04:30:38.828Z,9.53
2019-04-03T04:33:07.136Z,9.66
2019-04-03T04:35:35.865Z,9.68
2019-04-03T04:38:04.236Z,9.66
2019-04-03T04:40:32.622Z,9.71
2019-04-03T04:43:03.619Z,9.51
2019-04-03T04:45:33.284Z,9.44
2019-04-03T04:48:01.312Z,9.43
2019-04-03T04:50:29.632Z,9.37
2019-04-03T04:52:58.757Z,9.38
2019-04-03T04:55:30.422Z,9.33
2019-04-03T04:57:57.887Z,9.33
2019-04-03T05:00:29.220Z,9.37
2019-04-03T05:02:56.251Z,9.44
2019-04-03T05:05:26.458Z,9.42
2019-04-03T05:07:55.027Z,9.45
2019-04-03T05:10:23.272Z,9.44
2019-04-03T05:12:51.620Z,9.54
2019-04-03T05:15:23.277Z,9.62
2019-04-03T05:17:50.565Z,9.64
2019-04-03T05:20:20.211Z,9.71
2019-04-03T05:22:48.826Z,9.73
2019-04-03T05:25:17.943Z,9.76
2019-04-03T05:27:46.247Z,9.80
2019-04-03T05:30:23.813Z,9.95
2019-04-03T05:32:52.133Z,10.01
2019-04-03T05:35:20.462Z,10.10
2019-04-03T05:37:50.934Z,10.20
2019-04-03T05:40:19.355Z,10.36
2019-04-03T05:42:48.560Z,10.50
2019-04-03T05:45:17.020Z,10.61
2019-04-03T05:47:45.369Z,10.63
2019-04-03T05:50:13.851Z,10.76
2019-04-03T05:52:42.171Z,10.85
2019-04-03T05:55:10.907Z,10.88
2019-04-03T05:57:39.237Z,10.94
2019-04-03T06:00:07.815Z,11.03
2019-04-03T06:02:36.307Z,11.20
2019-04-03T06:05:07.090Z,11.28
2019-04-03T06:07:36.318Z,11.29
2019-04-03T06:10:06.505Z,11.36
2019-04-03T06:12:36.694Z,11.44
2019-04-03T06:15:09.310Z,11.54
2019-04-03T06:17:37.896Z,11.66
2019-04-03T06:20:10.521Z,11.61
2019-04-03T06:22:37.228Z,11.68
2019-04-03T06:25:06.803Z,11.91
2019-04-03T06:27:35.365Z,11.92
2019-04-03T06:30:07.644Z,12.02
2019-04-03T06:32:36.106Z,12.03
2019-04-03T06:35:05.254Z,12.12
2019-04-03T06:37:33.793Z,12.17
2019-04-03T06:40:03.301Z,12.22
2019-04-03T06:42:32.167Z,12.35
2019-04-03T06:45:00.477Z,12.42
2019-04-03T06:47:31.845Z,12.64
2019-04-03T06:49:59.188Z,12.80
2019-04-03T06:52:27.549Z,13.02
2019-04-03T06:54:55.830Z,13.27
2019-04-03T06:57:24.416Z,13.47
2019-04-03T06:59:52.739Z,13.79
2019-04-03T07:02:21.113Z,13.88
2019-04-03T07:04:49.411Z,13.86
2019-04-03T07:07:31.517Z,14.17
2019-04-03T07:09:50.325Z,14.29
2019-04-03T07:12:17.877Z,14.51
2019-04-03T07:14:46.273Z,14.73
2019-04-03T07:17:14.590Z,14.52
2019-04-03T07:19:43.254Z,14.78
2019-04-03T07:22:12.017Z,14.79
2019-04-03T07:24:40.348Z,14.81
2019-04-03T07:27:08.726Z,14.61
2019-04-03T07:29:37.159Z,14.00
2019-04-03T07:32:05.857Z,14.20
2019-04-03T07:34:34.637Z,14.48
2019-04-03T07:37:03.277Z,14.53
2019-04-03T07:39:31.918Z,14.64
2019-04-03T07:42:00.476Z,15.00
2019-04-03T07:44:29.806Z,15.35
2019-04-03T07:46:59.522Z,15.42
2019-04-03T07:49:27.911Z,15.58
2019-04-03T07:51:56.607Z,15.77
2019-04-03T07:54:26.803Z,15.34
2019-04-03T07:56:57.373Z,15.39
2019-04-03T07:59:24.960Z,15.58
2019-04-03T08:01:53.270Z,15.82
2019-04-03T08:04:21.980Z,15.95
2019-04-03T08:06:51.686Z,15.96
2019-04-03T08:09:19.989Z,16.25
2019-04-03T08:11:48.315Z,16.63
2019-04-03T08:14:19.228Z,16.40
2019-04-03T08:16:48.200Z,16.72
2019-04-03T08:19:16.773Z,17.00
2019-04-03T08:21:45.100Z,16.88
2019-04-03T08:24:13.404Z,16.88
2019-04-03T08:26:41.781Z,17.40
2019-04-03T08:29:10.411Z,16.85
2019-04-03T08:31:42.506Z,17.63
2019-04-03T08:34:17.061Z,17.33
2019-04-03T08:36:39.900Z,17.26
2019-04-03T08:39:08.790Z,17.27
2019-04-03T08:41:37.891Z,17.55
2019-04-03T08:44:08.459Z,17.59
2019-04-03T08:46:36.589Z,17.28
2019-04-03T08:49:04.954Z,17.52
2019-04-03T08:51:33.870Z,17.76
2019-04-03T08:54:04.269Z,17.75
2019-04-03T08:56:32.859Z,18.12
2019-04-03T08:59:01.491Z,18.73
2019-04-03T09:01:30.255Z,18.48
2019-04-03T09:03:59.162Z,19.20
2019-04-03T09:06:27.739Z,19.06
2019-04-03T09:08:57.849Z,18.92
2019-04-03T09:11:26.105Z,19.20
2019-04-03T09:13:55.321Z,19.48
2019-04-03T09:16:24.571Z,18.95
2019-04-03T09:18:52.879Z,19.59
2019-04-03T09:21:21.260Z,20.27
2019-04-03T09:23:49.575Z,19.73
2019-04-03T09:26:17.964Z,19.43
2019-04-03T09:28:46.271Z,20.33
2019-04-03T09:31:14.649Z,19.72
2019-04-03T09:33:42.972Z,20.32
2019-04-03T09:36:12.393Z,20.73
2019-04-03T09:38:41.789Z,20.51
2019-04-03T09:41:10.325Z,20.58
2019-04-03T09:43:39.697Z,20.38
2019-04-03T09:46:08.924Z,20.86
2019-04-03T09:48:37.642Z,21.10
2019-04-03T09:51:09.140Z,20.63
2019-04-03T09:53:36.551Z,20.53
2019-04-03T09:56:08.034Z,20.02
2019-04-03T09:58:35.817Z,19.92
2019-04-03T10:01:05.037Z,19.25
2019-04-03T10:03:33.622Z,20.32
2019-04-03T10:06:02.200Z,19.92
2019-04-03T10:08:30.509Z,20.06
2019-04-03T10:10:59.136Z,20.46
2019-04-03T10:13:27.521Z,20.73
2019-04-03T10:15:55.981Z,21.08
2019-04-03T10:18:24.309Z,20.20
2019-04-03T10:20:52.687Z,20.37
2019-04-03T10:23:21.115Z,21.57
2019-04-03T10:25:49.391Z,21.04
2019-04-03T10:28:19.675Z,21.17
2019-04-03T10:30:48.006Z,21.33
2019-04-03T10:33:16.491Z,21.96
2019-04-03T10:35:47.323Z,21.85
2019-04-03T10:38:16.125Z,21.86
2019-04-03T10:40:44.998Z,21.35
2019-04-03T10:43:13.897Z,21.94
2019-04-03T10:45:42.651Z,22.27
2019-04-03T10:48:11.239Z,21.95
2019-04-03T10:50:39.797Z,22.12
2019-04-03T10:53:08.171Z,20.82
2019-04-03T10:55:36.836Z,22.33
2019-04-03T10:58:07.628Z,22.19
2019-04-03T11:00:35.996Z,22.47
2019-04-03T11:03:04.691Z,22.53
2019-04-03T11:05:33.063Z,22.01
2019-04-03T11:08:01.521Z,21.76
2019-04-03T11:10:30.138Z,21.56
2019-04-03T11:12:58.994Z,21.67
2019-04-03T11:15:27.321Z,22.67
2019-04-03T11:17:55.858Z,23.04
2019-04-03T11:20:24.637Z,22.15
2019-04-03T11:23:04.122Z,21.83
2019-04-03T11:25:24.012Z,22.34
2019-04-03T11:27:52.834Z,22.76
2019-04-03T11:30:24.618Z,23.19
2019-04-03T11:32:52.193Z,23.35
2019-04-03T11:35:21.719Z,22.94
2019-04-03T11:37:50.666Z,22.42
2019-04-03T11:40:20.520Z,23.10
2019-04-03T11:42:48.996Z,23.97
2019-04-03T11:45:18.157Z,24.51
2019-04-03T11:47:47.233Z,23.95
2019-04-03T11:50:17.039Z,24.73
2019-04-03T11:52:45.742Z,25.32
2019-04-03T11:55:14.591Z,25.56
2019-04-03T11:57:43.035Z,24.69
2019-04-03T12:00:20.361Z,25.33
2019-04-03T12:02:48.813Z,24.68
2019-04-03T12:05:20.820Z,26.42
2019-04-03T12:07:48.178Z,25.16
2019-04-03T12:10:16.833Z,25.09
2019-04-03T12:12:45.114Z,24.27
2019-04-03T12:15:16.233Z,24.29
2019-04-03T12:17:44.619Z,24.41
2019-04-03T12:20:15.286Z,26.23
2019-04-03T12:22:43.479Z,25.43
2019-04-03T12:25:11.858Z,26.50
2019-04-03T12:27:40.379Z,25.97
2019-04-03T12:30:09.565Z,26.00
2019-04-03T12:32:42.872Z,25.71
2019-04-03T12:35:09.770Z,25.08
2019-04-03T12:37:38.733Z,25.73
2019-04-03T12:40:07.570Z,26.18
2019-04-03T12:42:35.961Z,26.98
2019-04-03T12:45:07.458Z,26.41
2019-04-03T12:47:36.228Z,26.49
2019-04-03T12:50:07.737Z,25.66
2019-04-03T12:52:36.505Z,25.79
2019-04-03T12:55:06.759Z,25.83
2019-04-03T12:57:38.141Z,25.22
2019-04-03T13:00:12.759Z,25.57
2019-04-03T13:02:41.321Z,25.41
2019-04-03T13:05:10.144Z,24.66
2019-04-03T13:07:38.521Z,24.06
2019-04-03T13:10:08.570Z,24.08
2019-04-03T13:12:37.352Z,25.02
2019-04-03T13:15:09.269Z,25.23
2019-04-03T13:17:38.348Z,26.04
2019-04-03T13:20:08.083Z,25.70
2019-04-03T13:22:36.828Z,26.03
2019-04-03T13:25:09.737Z,25.64
2019-04-03T13:27:38.111Z,26.64
2019-04-03T13:30:11.457Z,27.68
2019-04-03T13:32:39.637Z,26.60
2019-04-03T13:35:08.584Z,26.37
2019-04-03T13:37:37.284Z,27.84
2019-04-03T13:40:07.894Z,27.24
2019-04-03T13:42:36.613Z,26.55
2019-04-03T13:45:08.223Z,26.08
2019-04-03T13:47:39.872Z,25.51
2019-04-03T13:50:08.779Z,26.16
2019-04-03T13:52:41.012Z,26.92
2019-04-03T13:55:08.766Z,27.13
2019-04-03T13:57:37.192Z,26.89
2019-04-03T14:00:18.369Z,27.07
2019-04-03T14:02:37.474Z,25.86
2019-04-03T14:05:08.781Z,25.34
2019-04-03T14:07:40.475Z,25.41
2019-04-03T14:10:09.206Z,25.36
2019-04-03T14:12:41.641Z,26.45
2019-04-03T14:15:08.520Z,27.39
2019-04-03T14:17:37.484Z,27.63
2019-04-03T14:20:07.497Z,27.15
2019-04-03T14:22:36.068Z,28.65
2019-04-03T14:25:17.919Z,29.18
2019-04-03T14:27:36.498Z,27.99
2019-04-03T14:30:11.595Z,27.99
2019-04-03T14:32:39.460Z,29.24
2019-04-03T14:35:34.143Z,29.44
2019-04-03T14:37:38.829Z,29.13
2019-04-03T14:40:11.134Z,28.88
2019-04-03T14:42:38.551Z,27.81
2019-04-03T14:45:08.960Z,29.01
2019-04-03T14:47:37.558Z,28.44
2019-04-03T14:50:10.206Z,28.00
2019-04-03T14:52:38.647Z,28.25
2019-04-03T14:55:17.696Z,28.85
2019-04-03T14:57:38.230Z,27.04
2019-04-03T15:00:23.006Z,29.07
2019-04-03T15:02:40.445Z,27.93
2019-04-03T15:05:09.572Z,27.24
2019-04-03T15:07:37.948Z,27.91
2019-04-03T15:10:07.820Z,27.73
2019-04-03T15:12:38.794Z,27.34
2019-04-03T15:15:06.944Z,27.93
2019-04-03T15:17:37.635Z,27.08
2019-04-03T15:20:08.621Z,27.77
2019-04-03T15:22:37.176Z,26.90
2019-04-03T15:25:06.550Z,27.93
2019-04-03T15:27:34.937Z,28.08
2019-04-03T15:30:03.981Z,27.66
2019-04-03T15:32:32.323Z,28.34
2019-04-03T15:35:01.240Z,27.67
2019-04-03T15:37:30.445Z,27.76
2019-04-03T15:39:59.220Z,26.35
2019-04-03T15:42:27.973Z,26.18
2019-04-03T15:44:57.697Z,27.79
2019-04-03T15:47:35.325Z,26.30
2019-04-03T15:49:58.752Z,26.80
2019-04-03T15:52:27.472Z,27.36
2019-04-03T15:54:55.817Z,27.41
2019-04-03T15:57:24.400Z,26.92
2019-04-03T15:59:53.354Z,26.11
2019-04-03T16:02:21.963Z,26.04
2019-04-03T16:04:50.380Z,26.53
2019-04-03T16:07:18.648Z,25.83
2019-04-03T16:09:49.543Z,25.98
2019-04-03T16:12:17.268Z,25.83
2019-04-03T16:14:45.569Z,24.95
2019-04-03T16:17:13.887Z,25.40
2019-04-03T16:19:43.335Z,25.04
2019-04-03T16:22:12.402Z,25.43
2019-04-03T16:24:41.310Z,24.88
2019-04-03T16:27:10.985Z,25.26
2019-04-03T16:29:40.376Z,24.98
2019-04-03T16:32:09.328Z,24.61
2019-04-03T16:34:40.226Z,25.42
2019-04-03T16:37:08.181Z,25.22
2019-04-03T16:39:36.846Z,25.33
2019-04-03T16:42:05.516Z,25.08
2019-04-03T16:44:34.008Z,24.81
2019-04-03T16:47:02.895Z,25.20
2019-04-03T16:49:31.512Z,24.60
2019-04-03T16:52:00.033Z,24.69
2019-04-03T16:54:29.590Z,24.38
2019-04-03T16:56:58.801Z,24.37
2019-04-03T16:59:27.882Z,24.64
2019-04-03T17:01:56.856Z,24.37
2019-04-03T17:04:27.953Z,23.71
2019-04-03T17:06:55.688Z,23.81
2019-04-03T17:09:24.235Z,23.29
2019-04-03T17:11:52.607Z,22.90
2019-04-03T17:14:23.137Z,22.70
2019-04-03T17:16:50.974Z,22.63
2019-04-03T17:19:19.277Z,22.15
2019-04-03T17:21:48.121Z,21.23
2019-04-03T17:24:17.793Z,20.74
2019-04-03T17:26:50.270Z,19.69
2019-04-03T17:29:17.131Z,19.40
2019-04-03T17:31:45.519Z,19.09
2019-04-03T17:34:13.814Z,18.81
2019-04-03T17:36:42.206Z,18.42
2019-04-03T17:39:10.513Z,18.43
2019-04-03T17:41:39.579Z,18.26
2019-04-03T17:44:07.888Z,17.95
2019-04-03T17:46:36.545Z,17.73
2019-04-03T17:49:05.129Z,17.38
2019-04-03T17:51:34.101Z,17.21
2019-04-03T17:54:02.543Z,17.02
2019-04-03T17:56:30.903Z,16.96
2019-04-03T17:58:59.199Z,17.03
2019-04-03T18:01:27.584Z,16.76
2019-04-03T18:03:56.198Z,16.56
2019-04-03T18:06:27.166Z,16.51
2019-04-03T18:08:54.961Z,16.40
2019-04-03T18:11:23.332Z,16.16
2019-04-03T18:13:54.644Z,16.11
2019-04-03T18:16:21.674Z,16.33
2019-04-03T18:18:50.192Z,16.02
2019-04-03T18:21:18.617Z,15.88
2019-04-03T18:23:46.949Z,15.63
2019-04-03T18:26:15.257Z,15.48
2019-04-03T18:28:43.620Z,15.38
2019-04-03T18:31:13.611Z,15.39
2019-04-03T18:33:42.315Z,15.52
2019-04-03T18:36:10.624Z,15.37
2019-04-03T18:38:39.148Z,15.28
2019-04-03T18:41:07.939Z,15.40
2019-04-03T18:43:36.517Z,15.13
2019-04-03T18:46:04.909Z,14.96
2019-04-03T18:48:33.278Z,15.22
2019-04-03T18:51:01.618Z,15.11
2019-04-03T18:53:30.287Z,15.25
2019-04-03T18:55:58.895Z,15.11
2019-04-03T18:58:27.264Z,14.95
2019-04-03T19:00:55.557Z,14.86
2019-04-03T19:03:23.868Z,14.90
2019-04-03T19:05:52.185Z,14.79
2019-04-03T19:08:20.597Z,14.98
2019-04-03T19:11:01.381Z,14.51
2019-04-03T19:13:18.960Z,14.48
2019-04-03T19:15:47.329Z,14.46
2019-04-03T19:18:19.721Z,14.75
2019-04-03T19:20:46.087Z,14.71
2019-04-03T19:23:14.383Z,14.39
2019-04-03T19:25:42.706Z,14.33
2019-04-03T19:28:11.320Z,14.14
2019-04-03T19:30:39.632Z,14.04
2019-04-03T19:33:07.963Z,14.45
2019-04-03T19:35:36.291Z,14.42
2019-04-03T19:38:05.068Z,14.34
2019-04-03T19:40:33.978Z,14.14
2019-04-03T19:43:02.746Z,14.22
2019-04-03T19:45:31.178Z,14.26
2019-04-03T19:47:59.501Z,14.24
2019-04-03T19:50:27.804Z,14.19
2019-04-03T19:52:56.121Z,13.73
2019-04-03T19:55:24.428Z,13.92
2019-04-03T19:57:53.175Z,13.71
2019-04-03T20:00:21.619Z,13.66
2019-04-03T20:02:49.945Z,13.57
2019-04-03T20:05:19.441Z,13.72
2019-04-03T20:07:47.774Z,13.56
2019-04-03T20:10:16.165Z,13.40
2019-04-03T20:12:44.469Z,13.66
2019-04-03T20:15:13.234Z,13.63
2019-04-03T20:17:41.536Z,13.63
2019-04-03T20:20:11.554Z,13.58
2019-04-03T20:22:42.414Z,13.46
2019-04-03T20:25:09.933Z,13.27
2019-04-03T20:27:38.351Z,12.99
2019-04-03T20:30:07.957Z,12.92
2019-04-03T20:32:36.373Z,13.13
2019-04-03T20:35:07.160Z,13.35
2019-04-03T20:37:35.473Z,13.01
2019-04-03T20:40:05.912Z,12.87
2019-04-03T20:42:34.177Z,12.71
2019-04-03T20:45:02.558Z,12.67
2019-04-03T20:47:30.851Z,12.61
2019-04-03T20:49:59.173Z,12.58
2019-04-03T20:52:27.470Z,12.65
2019-04-03T20:54:55.876Z,12.45
2019-04-03T20:57:24.191Z,12.18
2019-04-03T21:00:02.019Z,12.52
2019-04-03T21:02:23.044Z,12.64
2019-04-03T21:04:51.559Z,12.40
2019-04-03T21:07:19.871Z,12.11
2019-04-03T21:09:48.181Z,11.96
2019-04-03T21:12:16.498Z,12.01
2019-04-03T21:14:47.447Z,11.94
2019-04-03T21:17:14.901Z,11.93
2019-04-03T21:19:43.208Z,12.03
2019-04-03T21:22:11.506Z,12.18
2019-04-03T21:24:39.827Z,11.90
2019-04-03T21:27:08.787Z,11.69
2019-04-03T21:29:37.799Z,11.65
2019-04-03T21:32:06.392Z,11.55
2019-04-03T21:34:34.716Z,11.65
2019-04-03T21:37:03.159Z,11.61
2019-04-03T21:39:33.790Z,11.61
2019-04-03T21:42:01.861Z,11.59
2019-04-03T21:44:31.933Z,11.60
2019-04-03T21:47:00.579Z,11.52
2019-04-03T21:49:28.942Z,11.51
2019-04-03T21:51:57.265Z,11.45
2019-04-03T21:54:26.854Z,11.48
2019-04-03T21:56:55.616Z,11.47
2019-04-03T21:59:23.915Z,11.48
2019-04-03T22:01:52.579Z,11.70
2019-04-03T22:04:22.850Z,11.64
2019-04-03T22:06:50.986Z,11.49
2019-04-03T22:09:19.558Z,11.43
2019-04-03T22:11:48.171Z,11.49
2019-04-03T22:14:16.476Z,11.52
2019-04-03T22:16:44.774Z,11.44
2019-04-03T22:19:13.826Z,11.33
2019-04-03T22:21:42.213Z,11.43
2019-04-03T22:24:10.653Z,11.38
2019-04-03T22:26:40.794Z,11.27
2019-04-03T22:29:09.062Z,11.18
2019-04-03T22:31:37.366Z,11.24
2019-04-03T22:34:05.745Z,11.27
2019-04-03T22:36:34.127Z,11.11
2019-04-03T22:39:02.523Z,11.14
2019-04-03T22:41:30.828Z,11.13
2019-04-03T22:43:59.591Z,10.99
2019-04-03T22:46:27.907Z,10.97
2019-04-03T22:48:56.205Z,11.07
2019-04-03T22:51:24.599Z,10.96
2019-04-03T22:53:52.966Z,10.99
2019-04-03T22:56:21.285Z,10.84
2019-04-03T22:58:52.592Z,10.90
2019-04-03T23:01:19.627Z,10.85
2019-04-03T23:03:49.362Z,10.79
2019-04-03T23:06:18.800Z,10.91
2019-04-03T23:08:47.795Z,10.74
2019-04-03T23:11:16.434Z,10.71
2019-04-03T23:13:44.771Z,11.01
2019-04-03T23:16:13.117Z,10.80
2019-04-03T23:18:41.750Z,10.62
2019-04-03T23:21:10.120Z,10.98
2019-04-03T23:23:38.599Z,10.95
2019-04-03T23:26:06.904Z,10.93
2019-04-03T23:28:35.384Z,10.76
2019-04-03T23:31:03.710Z,10.66
2019-04-03T23:33:32.447Z,10.71
2019-04-03T23:36:00.840Z,10.53
2019-04-03T23:38:29.131Z,10.45
2019-04-03T23:40:57.447Z,10.43
2019-04-03T23:43:25.832Z,10.47
2019-04-03T23:45:54.220Z,10.49
2019-04-03T23:48:22.595Z,10.55
2019-04-03T23:50:52.392Z,10.53
2019-04-03T23:53:21.245Z,10.51
2019-04-03T23:55:49.543Z,10.27
2019-04-03T23:58:17.866Z,10.23
